Time;durP1;ratioP1;P1;durP2;ratioP2;P2;SDS_P1;SDS_P2;PMS_P1;PMS_P2;Temp;Humidity;BMP_temperature;BMP_pressure;BME280_temperature;BME280_humidity;BME280_pressure;Samples;Min_cycle;Max_cycle;Signal;HPM_P1;HPM_P2
2022/05/23 00:02:05;;;;;;;3.15;1.15;;;;;;;14.19;54.42;100016.25;4454591;32;20096;-61
2022/05/23 00:04:33;;;;;;;1.48;0.93;;;;;;;14.19;54.20;100016.25;4454657;32;20088;-61
2022/05/23 00:07:00;;;;;;;1.98;1.30;;;;;;;14.23;54.16;100015.22;4453903;32;20089;-61
2022/05/23 00:09:29;;;;;;;6.68;1.52;;;;;;;14.23;54.04;100009.94;4454324;32;20092;-61
2022/05/23 00:11:56;;;;;;;4.72;1.10;;;;;;;14.19;54.60;100008.28;4454264;32;20573;-61
2022/05/23 00:14:23;;;;;;;3.40;1.00;;;;;;;14.13;54.82;100015.56;4454237;32;20131;-61
2022/05/23 00:16:51;;;;;;;1.95;1.10;;;;;;;14.01;55.37;100011.53;4454393;32;20093;-61
2022/05/23 00:19:19;;;;;;;1.15;1.02;;;;;;;13.96;54.76;100010.84;4454214;32;20497;-61
2022/05/23 00:21:46;;;;;;;5.28;0.95;;;;;;;13.95;55.53;100006.44;4454199;32;20173;-61
2022/05/23 00:24:15;;;;;;;2.62;1.08;;;;;;;13.83;55.98;100005.91;4454166;32;20084;-61
2022/05/23 00:26:46;;;;;;;2.58;1.02;;;;;;;13.79;55.82;100004.28;4454512;32;20093;-61
2022/05/23 00:29:14;;;;;;;5.75;1.30;;;;;;;13.83;55.63;100005.91;4454243;32;20166;-61
2022/05/23 00:35:17;;;;;;;2.22;0.98;;;;;;;13.80;55.90;100006.00;4454196;32;20441;-61
2022/05/23 00:37:14;;;;;;;1.55;1.10;;;;;;;13.59;56.23;100001.38;4454368;32;20103;-61
2022/05/23 00:39:41;;;;;;;1.33;1.00;;;;;;;13.45;56.96;100001.78;4454402;32;20127;-61
2022/05/23 00:45:00;;;;;;;3.72;1.30;;;;;;;13.60;56.25;100005.75;4454110;32;20069;-61
2022/05/23 00:47:28;;;;;;;1.50;1.15;;;;;;;13.57;56.00;100003.22;4454100;32;20089;-61
2022/05/23 00:49:55;;;;;;;2.35;1.12;;;;;;;13.51;56.59;100008.69;4453863;32;20096;-61
2022/05/23 00:52:25;;;;;;;1.80;1.12;;;;;;;13.38;56.93;100018.75;4454115;32;20108;-61
2022/05/23 00:54:57;;;;;;;3.62;1.37;;;;;;;13.26;58.07;100022.63;4453811;32;20093;-61
2022/05/23 00:57:32;;;;;;;2.70;1.20;;;;;;;13.25;57.47;100030.59;4453920;32;20144;-61
2022/05/23 01:00:03;;;;;;;3.45;1.12;;;;;;;13.12;59.85;100023.00;4453731;32;20776;-61
2022/05/23 01:02:31;;;;;;;2.03;1.20;;;;;;;12.98;59.93;100019.87;4454038;32;20100;-61
2022/05/23 01:04:59;;;;;;;3.35;1.20;;;;;;;12.91;61.40;100023.59;4453710;32;20131;-61
2022/05/23 01:07:26;;;;;;;2.90;1.30;;;;;;;12.84;60.81;100032.59;4453932;32;20502;-61
2022/05/23 01:09:53;;;;;;;4.07;1.37;;;;;;;12.82;60.82;100029.97;4453849;32;20148;-61
2022/05/23 01:12:21;;;;;;;1.50;1.40;;;;;;;12.87;60.82;100028.09;4453794;32;20108;-61
2022/05/23 01:14:48;;;;;;;4.10;1.08;;;;;;;12.84;60.75;100028.16;4453672;32;20110;-61
2022/05/23 01:17:17;;;;;;;2.85;1.20;;;;;;;12.79;61.69;100030.06;4453801;32;20096;-61
2022/05/23 01:19:44;;;;;;;1.55;1.45;;;;;;;12.71;61.76;100020.59;4455734;32;20131;-61
2022/05/23 01:22:18;;;;;;;2.35;1.08;;;;;;;12.72;61.45;100019.69;4455737;32;20108;-61
2022/05/23 01:24:51;;;;;;;3.25;1.23;;;;;;;12.74;61.84;100018.75;4455771;32;20077;-61
2022/05/23 01:27:18;;;;;;;8.38;1.62;;;;;;;12.71;61.37;100021.47;4455639;32;20157;-61
2022/05/23 01:29:46;;;;;;;2.65;1.20;;;;;;;12.59;63.06;100014.72;4455298;32;20108;-61
2022/05/23 01:32:13;;;;;;;3.05;1.27;;;;;;;12.38;62.97;100010.00;4455738;32;20176;-61
2022/05/23 01:34:42;;;;;;;7.30;1.35;;;;;;;12.23;64.89;100013.03;4455717;32;20111;-61
2022/05/23 01:37:11;;;;;;;3.60;1.25;;;;;;;12.09;64.95;100006.31;4455502;32;20073;-61
2022/05/23 01:39:42;;;;;;;3.33;1.25;;;;;;;11.98;64.18;100008.34;4455604;32;20437;-61
2022/05/23 01:42:09;;;;;;;2.08;1.37;;;;;;;11.94;64.71;100004.91;4455547;32;20104;-61
2022/05/23 01:44:37;;;;;;;1.80;1.30;;;;;;;11.87;65.55;99998.03;4455611;32;20089;-61
2022/05/23 01:47:15;;;;;;;2.40;1.50;;;;;;;11.76;65.30;99997.34;4455564;32;20096;-61
2022/05/23 01:49:43;;;;;;;3.00;1.30;;;;;;;11.67;65.38;100001.09;4455616;32;20486;-61
2022/05/23 01:52:13;;;;;;;3.75;1.52;;;;;;;11.64;65.16;99993.22;4455516;32;20122;-61
2022/05/23 01:54:41;;;;;;;2.65;1.10;;;;;;;11.55;65.88;99993.41;4455519;32;20408;-61
2022/05/23 01:57:11;;;;;;;2.33;1.12;;;;;;;11.55;66.64;99992.56;4455287;32;20394;-61
2022/05/23 02:02:25;;;;;;;2.67;1.37;;;;;;;11.54;67.77;99986.41;4455382;32;20501;-61
2022/05/23 02:04:53;;;;;;;3.00;1.40;;;;;;;11.39;68.40;100002.59;4455393;32;20127;-61
2022/05/23 02:07:21;;;;;;;3.65;1.52;;;;;;;11.40;68.24;99985.84;4455195;32;20141;-61
2022/05/23 02:09:49;;;;;;;2.35;1.15;;;;;;;11.35;67.34;99996.50;4455335;32;20515;-61
2022/05/23 02:12:17;;;;;;;1.95;1.30;;;;;;;11.32;68.87;99999.22;4455153;32;20116;-61
2022/05/23 02:14:47;;;;;;;6.93;1.87;;;;;;;11.25;69.63;100001.09;4455210;32;20505;-61
2022/05/23 02:17:16;;;;;;;4.32;1.80;;;;;;;11.28;70.18;100002.81;4455254;32;20587;-61
2022/05/23 02:19:43;;;;;;;2.42;1.70;;;;;;;11.30;71.01;100000.13;4455184;32;20451;-61
2022/05/23 02:22:11;;;;;;;3.12;1.70;;;;;;;11.33;70.12;100003.56;4455254;32;20170;-61
2022/05/23 02:24:38;;;;;;;6.55;2.08;;;;;;;11.35;69.44;99999.16;4455245;32;20100;-61
2022/05/23 02:27:06;;;;;;;5.85;1.73;;;;;;;11.41;69.41;99998.12;4455253;32;20447;-61
2022/05/23 02:29:34;;;;;;;6.25;1.92;;;;;;;11.39;68.94;99992.91;4454817;32;20165;-61
2022/05/23 02:32:03;;;;;;;4.28;2.10;;;;;;;11.32;68.75;99991.31;4455400;32;20581;-61
2022/05/23 02:34:30;;;;;;;6.60;2.20;;;;;;;11.15;70.88;99993.41;4455281;32;20097;-61
2022/05/23 02:36:58;;;;;;;3.87;2.45;;;;;;;11.00;71.39;99992.81;4455090;32;20135;-61
2022/05/23 02:39:30;;;;;;;4.18;2.00;;;;;;;10.85;71.69;100001.03;4455238;32;20093;-61
2022/05/23 02:41:57;;;;;;;2.20;1.70;;;;;;;10.79;71.81;99990.59;4454977;32;20135;-61
2022/05/23 02:44:25;;;;;;;1.62;1.52;;;;;;;10.95;71.01;100001.72;4455194;32;20084;-61
2022/05/23 02:46:54;;;;;;;8.70;2.70;;;;;;;10.89;72.00;99989.53;4455204;32;20575;-61
2022/05/23 02:49:23;;;;;;;2.55;1.52;;;;;;;10.90;70.53;99993.91;4455215;32;20093;-61
2022/05/23 02:51:50;;;;;;;4.28;1.62;;;;;;;10.82;70.85;99985.28;4455145;32;20524;-61
2022/05/23 02:54:19;;;;;;;2.58;1.85;;;;;;;10.71;71.34;99990.75;4454874;32;20153;-61
2022/05/23 02:56:48;;;;;;;1.58;1.40;;;;;;;10.62;72.42;99980.38;4455040;32;20100;-61
2022/05/23 02:59:17;;;;;;;3.28;1.58;;;;;;;10.50;73.61;99983.25;4455058;32;20553;-61
2022/05/23 03:04:33;;;;;;;1.30;1.20;;;;;;;10.65;71.17;99990.00;4454929;32;20388;-61
2022/05/23 03:07:00;;;;;;;3.15;1.70;;;;;;;10.77;71.17;99987.97;4454728;32;20097;-61
2022/05/23 03:09:30;;;;;;;1.83;1.65;;;;;;;10.88;69.84;99985.16;4454924;32;20159;-61
2022/05/23 03:11:57;;;;;;;2.75;1.33;;;;;;;10.98;69.30;99986.69;4454710;32;20131;-61
2022/05/23 03:14:28;;;;;;;2.90;1.50;;;;;;;11.01;68.90;99991.91;4454643;32;20179;-61
2022/05/23 03:17:03;;;;;;;2.15;1.35;;;;;;;11.02;68.57;99987.50;4454838;32;20114;-61
2022/05/23 03:19:37;;;;;;;3.03;1.55;;;;;;;11.05;68.73;99983.94;4454938;32;20462;-61
2022/05/23 03:27:40;;;;;;;2.65;1.50;;;;;;;10.80;70.51;99980.94;4454720;32;20092;-61
2022/05/23 03:30:10;;;;;;;6.95;1.73;;;;;;;10.75;70.39;99992.44;4454979;32;20537;-61
2022/05/23 03:32:42;;;;;;;2.87;1.25;;;;;;;10.74;71.63;99995.09;4455076;32;20101;-61
2022/05/23 03:35:09;;;;;;;2.30;1.30;;;;;;;10.81;71.56;99998.47;4454559;32;20152;-61
2022/05/23 03:37:37;;;;;;;2.55;1.37;;;;;;;11.03;69.60;99989.28;4454723;32;20571;-61
2022/05/23 03:40:07;;;;;;;5.18;1.60;;;;;;;11.13;70.67;100003.13;4454202;32;20168;-61
2022/05/23 03:42:37;;;;;;;3.28;1.40;;;;;;;11.08;71.50;100000.56;4454724;32;20118;-61
2022/05/23 03:45:07;;;;;;;6.43;1.70;;;;;;;11.05;71.17;99999.78;4454523;32;20143;-61
2022/05/23 03:47:37;;;;;;;4.45;1.70;;;;;;;10.98;73.26;100013.06;4460844;32;20113;-61
2022/05/23 03:50:06;;;;;;;5.68;2.70;;;;;;;11.09;72.93;100001.44;4470544;32;20130;-61
2022/05/23 03:52:33;;;;;;;8.13;2.37;;;;;;;11.33;71.57;99998.31;4464490;31;20134;-62
2022/05/23 03:55:01;;;;;;;9.30;1.90;;;;;;;11.52;70.84;99998.78;4462608;32;20146;-62
2022/05/23 03:57:28;;;;;;;10.15;2.08;;;;;;;11.57;70.18;99994.28;4459199;32;20480;-62
2022/05/23 03:59:57;;;;;;;6.32;1.90;;;;;;;11.63;71.00;99991.50;4454378;32;20440;-62
2022/05/23 04:02:27;;;;;;;4.18;2.30;;;;;;;11.60;71.85;99995.97;4454017;32;20460;-62
2022/05/23 04:04:54;;;;;;;4.60;2.22;;;;;;;11.58;72.58;99993.34;4454458;32;20085;-62
2022/05/23 04:07:30;;;;;;;6.93;2.60;;;;;;;11.59;71.97;99994.22;4454913;32;20089;-62
2022/05/23 04:09:58;;;;;;;4.47;2.03;;;;;;;11.62;72.20;99996.78;4455356;32;20798;-62
2022/05/23 04:12:25;;;;;;;6.03;2.08;;;;;;;11.69;71.91;99991.34;4455124;32;20109;-62
2022/05/23 04:14:53;;;;;;;8.43;2.95;;;;;;;11.79;71.71;99996.41;4454686;32;20149;-62
2022/05/23 04:17:23;;;;;;;2.40;1.70;;;;;;;11.90;71.87;99990.00;4455557;32;20697;-62
2022/05/23 04:19:50;;;;;;;6.20;2.20;;;;;;;12.02;71.57;99991.50;4455004;32;20166;-62
2022/05/23 04:22:18;;;;;;;7.37;1.98;;;;;;;12.12;70.88;99985.09;4454769;32;20131;-62
2022/05/23 04:24:47;;;;;;;2.28;1.50;;;;;;;12.24;71.00;99981.28;4454482;32;20376;-62
2022/05/23 04:27:19;;;;;;;3.45;1.98;;;;;;;12.32;70.21;99984.59;4454427;32;20118;-62
2022/05/23 04:29:46;;;;;;;4.05;2.15;;;;;;;12.43;69.55;99982.53;4454243;32;20093;-62
2022/05/23 04:35:12;;;;;;;4.22;1.83;;;;;;;12.88;66.25;99982.22;4445784;32;20088;-62
2022/05/23 04:37:51;;;;;;;5.10;1.95;;;;;;;13.09;65.03;99978.09;4459500;32;20126;-62
2022/05/23 04:40:22;;;;;;;4.55;1.75;;;;;;;13.27;64.45;99976.72;4453919;32;20085;-62
2022/05/23 04:42:50;;;;;;;14.60;3.15;;;;;;;13.48;63.33;99982.31;4454635;32;20146;-62
2022/05/23 04:45:18;;;;;;;8.38;2.37;;;;;;;13.64;63.69;99980.94;4461780;32;20092;-62
2022/05/23 04:50:33;;;;;;;6.82;2.40;;;;;;;13.57;65.47;99992.63;4461698;32;20103;-63
2022/05/23 04:53:02;;;;;;;5.93;2.58;;;;;;;13.64;65.17;99996.81;4461268;32;20507;-63
2022/05/23 04:55:33;;;;;;;3.25;2.35;;;;;;;13.84;62.68;99999.69;4460277;32;20515;-63
2022/05/23 04:58:00;;;;;;;4.70;2.60;;;;;;;13.85;64.74;99996.16;4469471;32;20104;-63
2022/05/23 05:00:29;;;;;;;6.80;2.50;;;;;;;14.06;64.09;99993.72;4469404;32;20123;-63
2022/05/23 05:03:00;;;;;;;6.55;2.95;;;;;;;14.18;62.62;99995.97;4469403;32;20417;-63
2022/05/23 05:05:33;;;;;;;20.88;3.10;;;;;;;14.23;62.69;100003.75;4469519;32;20488;-63
2022/05/23 05:08:01;;;;;;;8.65;2.15;;;;;;;14.34;62.07;100009.56;4467720;32;20092;-62
2022/05/23 05:10:29;;;;;;;5.47;2.30;;;;;;;14.44;61.63;100005.69;4461880;32;20526;-63
2022/05/23 05:12:58;;;;;;;11.38;3.05;;;;;;;14.57;62.11;100009.69;4463317;32;20177;-63
2022/05/23 05:15:27;;;;;;;9.25;2.65;;;;;;;14.76;60.77;100006.41;4456325;32;20096;-64
2022/05/23 05:17:56;;;;;;;8.20;2.87;;;;;;;14.88;60.30;100010.44;4464196;32;20160;-64
2022/05/23 05:20:25;;;;;;;5.55;2.55;;;;;;;15.04;60.67;100015.12;4464337;32;20100;-61
2022/05/23 05:22:58;;;;;;;10.10;3.05;;;;;;;15.20;59.86;100017.22;4453797;32;20097;-61
2022/05/23 05:25:26;;;;;;;21.12;4.05;;;;;;;15.39;59.21;100014.75;4454039;32;20136;-61
2022/05/23 05:27:53;;;;;;;7.78;2.60;;;;;;;15.48;59.61;100006.44;4452681;32;20135;-61
2022/05/23 05:30:21;;;;;;;12.43;2.78;;;;;;;15.64;60.00;100007.56;4453778;32;20138;-61
2022/05/23 05:33:04;;;;;;;14.35;3.10;;;;;;;15.78;58.46;100009.72;4459339;32;20158;-61
2022/05/23 05:35:49;;;;;;;6.22;1.80;;;;;;;15.83;58.39;100014.84;4460999;32;20527;-62
2022/05/23 05:38:33;;;;;;;3.35;1.67;;;;;;;15.99;55.65;100011.53;4458917;32;20512;-61
2022/05/23 05:41:09;;;;;;;6.05;1.60;;;;;;;16.16;54.58;100015.31;4459072;32;20088;-61
2022/05/23 05:43:47;;;;;;;3.90;1.60;;;;;;;16.37;54.58;100017.09;4459240;32;20120;-62
2022/05/23 05:46:19;;;;;;;2.42;1.40;;;;;;;16.52;52.35;100017.38;4452608;32;20225;-61
2022/05/23 05:48:50;;;;;;;4.22;1.58;;;;;;;16.63;50.23;100015.97;4452810;32;20114;-62
2022/05/23 05:51:21;;;;;;;8.20;1.62;;;;;;;16.77;51.09;100019.87;4452912;32;20172;-61
2022/05/23 05:53:51;;;;;;;10.00;1.30;;;;;;;16.55;50.50;100019.91;4452382;32;20104;-61
2022/05/23 05:56:20;;;;;;;4.43;1.23;;;;;;;16.55;49.85;100025.22;4452703;32;20088;-62
2022/05/23 05:58:49;;;;;;;4.62;1.67;;;;;;;16.50;50.38;100022.72;4452819;32;20123;-62
2022/05/23 06:01:18;;;;;;;10.65;1.80;;;;;;;16.60;50.40;100017.91;4452560;32;20417;-61
2022/05/23 06:03:45;;;;;;;8.52;1.83;;;;;;;16.79;49.01;100024.22;4453307;32;20403;-61
2022/05/23 06:11:45;;;;;;;11.18;1.73;;;;;;;17.08;48.26;100032.72;4470738;32;20118;-61
2022/05/23 06:14:14;;;;;;;2.00;1.65;;;;;;;17.19;47.88;100033.09;4467432;32;20127;-61
2022/05/23 06:16:43;;;;;;;3.78;2.62;;;;;;;17.19;48.75;100028.62;4461168;32;20127;-61
2022/05/23 06:19:11;;;;;;;3.08;1.67;;;;;;;17.31;48.23;100029.00;4458686;32;20092;-62
2022/05/23 06:21:41;;;;;;;6.87;1.58;;;;;;;17.31;47.48;100032.53;4454961;32;20131;-62
2022/05/23 06:24:10;;;;;;;3.35;1.62;;;;;;;17.06;48.26;100035.44;4453692;32;20836;-62
2022/05/23 06:26:39;;;;;;;7.30;1.50;;;;;;;17.03;48.68;100045.34;4457121;32;20110;-61
2022/05/23 06:29:07;;;;;;;6.30;1.37;;;;;;;17.18;48.85;100034.91;4470349;32;20138;-61
2022/05/23 06:31:34;;;;;;;5.28;1.73;;;;;;;17.30;47.60;100044.13;4465293;32;20462;-61
2022/05/23 06:34:03;;;;;;;7.72;1.50;;;;;;;17.39;47.76;100037.53;4456956;32;20170;-61
2022/05/23 06:36:31;;;;;;;5.62;1.52;;;;;;;17.54;46.88;100034.16;4455217;32;20088;-62
2022/05/23 06:38:58;;;;;;;9.35;1.60;;;;;;;17.68;48.46;100026.38;4454646;32;20627;-62
2022/05/23 06:41:30;;;;;;;5.20;1.60;;;;;;;17.48;47.62;100029.09;4455544;32;20120;-62
2022/05/23 06:43:58;;;;;;;5.55;1.40;;;;;;;17.42;46.84;100024.94;4454824;32;20097;-62
2022/05/23 06:46:29;;;;;;;7.32;1.77;;;;;;;17.50;47.47;100021.91;4454822;32;20152;-62
2022/05/23 06:48:59;;;;;;;3.03;1.10;;;;;;;17.85;46.41;100017.63;4454993;32;20100;-62
2022/05/23 06:51:29;;;;;;;4.55;1.10;;;;;;;17.80;45.58;100019.63;4440606;32;20136;-62
2022/05/23 06:53:57;;;;;;;11.02;1.87;;;;;;;17.69;46.46;100013.94;4455087;32;20140;-62
2022/05/23 06:56:24;;;;;;;2.50;1.40;;;;;;;17.60;46.96;100012.56;4455261;32;20488;-62
2022/05/23 06:58:52;;;;;;;4.68;1.27;;;;;;;17.94;46.29;100016.31;4455063;32;20133;-63
2022/05/23 07:01:22;;;;;;;7.40;2.22;;;;;;;17.98;45.53;100009.91;4454695;32;20093;-62
2022/05/23 07:03:51;;;;;;;3.80;1.20;;;;;;;17.98;46.67;100006.37;4454795;32;20491;-62
2022/05/23 07:14:38;;;;;;;19.25;1.20;;;;;;;18.71;45.16;100004.50;4470577;32;20097;-62
2022/05/23 07:17:05;;;;;;;9.45;1.15;;;;;;;18.77;44.75;100004.22;4464243;32;20153;-62
2022/05/23 07:19:39;;;;;;;14.38;1.50;;;;;;;18.68;45.08;100000.19;4471569;32;20088;-62
2022/05/23 07:22:08;;;;;;;4.87;1.20;;;;;;;18.83;44.03;100004.78;4471257;32;20104;-61
2022/05/23 07:24:37;;;;;;;5.55;1.33;;;;;;;18.78;42.81;100005.94;4471045;32;20134;-62
2022/05/23 07:27:05;;;;;;;18.50;1.20;;;;;;;18.76;44.45;100005.16;4471139;32;20106;-62
2022/05/23 07:29:33;;;;;;;1.33;1.23;;;;;;;19.08;43.49;99996.34;4470870;32;20619;-62
2022/05/23 07:32:05;;;;;;;1.92;1.10;;;;;;;19.39;42.18;99983.13;4470339;32;20762;-62
2022/05/23 07:34:32;;;;;;;15.23;1.10;;;;;;;19.50;42.35;99978.91;4470101;32;20729;-63
2022/05/23 07:37:01;;;;;;;4.97;1.33;;;;;;;19.45;41.95;99975.63;4463479;32;20173;-63
2022/05/23 07:39:28;;;;;;;11.35;1.25;;;;;;;19.05;42.71;99984.97;4467937;32;20108;-63
2022/05/23 07:41:56;;;;;;;13.52;1.58;;;;;;;19.25;42.35;99989.22;4453993;32;20108;-63
2022/05/23 07:44:23;;;;;;;4.10;1.00;;;;;;;19.22;42.79;99973.34;4470717;32;20883;-63
2022/05/23 07:46:53;;;;;;;3.80;0.88;;;;;;;19.41;41.81;99982.09;4470879;32;20507;-62
2022/05/23 07:49:20;;;;;;;3.35;0.90;;;;;;;19.37;41.54;99974.34;4470764;32;20137;-62
2022/05/23 07:51:50;;;;;;;4.50;1.10;;;;;;;19.17;41.89;99983.44;4463980;32;20123;-63
2022/05/23 08:02:41;;;;;;;12.70;1.62;;;;;;;19.70;42.40;99967.16;4459710;32;20185;-63
2022/05/23 08:05:12;;;;;;;8.85;1.33;;;;;;;19.85;40.70;99967.22;4461622;32;20126;-63
2022/05/23 08:07:44;;;;;;;8.48;0.90;;;;;;;19.95;40.10;99963.09;4461890;32;20130;-63
2022/05/23 08:10:12;;;;;;;6.53;0.95;;;;;;;20.34;39.62;99967.94;4461957;32;20134;-63
2022/05/23 08:12:52;;;;;;;6.57;1.00;;;;;;;20.55;39.46;99968.50;4461981;32;21661;-62
2022/05/23 08:15:22;;;;;;;1.75;1.10;;;;;;;20.73;38.90;99963.84;4460942;32;20139;-63
2022/05/23 08:17:50;;;;;;;1.58;1.00;;;;;;;20.98;37.89;99969.44;4470700;32;20093;-63
2022/05/23 08:20:25;;;;;;;6.90;1.15;;;;;;;20.81;37.42;99966.06;4469362;32;20125;-63
2022/05/23 08:22:55;;;;;;;3.78;0.65;;;;;;;20.50;37.39;99962.56;4461803;32;20119;-63
2022/05/23 08:25:24;;;;;;;2.95;0.80;;;;;;;20.64;37.26;99967.09;4471086;32;20575;-63
2022/05/23 08:27:53;;;;;;;4.87;1.20;;;;;;;20.92;36.97;99967.16;4470361;32;20111;-63
2022/05/23 08:30:21;;;;;;;2.17;0.95;;;;;;;21.20;38.08;99965.41;4470283;32;20123;-63
2022/05/23 08:32:50;;;;;;;2.62;0.80;;;;;;;21.30;37.23;99958.53;4469137;32;20149;-63
2022/05/23 08:35:18;;;;;;;5.35;1.12;;;;;;;21.78;35.43;99958.22;4454026;32;20126;-63
2022/05/23 08:37:52;;;;;;;3.97;0.80;;;;;;;21.61;33.72;99952.09;4454957;32;20226;-63
2022/05/23 08:40:45;;;;;;;1.12;0.70;;;;;;;21.48;35.64;99952.06;4454624;32;20164;-63
2022/05/23 08:43:25;;;;;;;1.30;0.60;;;;;;;21.61;35.58;99945.88;4454774;32;20165;-63
2022/05/23 08:45:56;;;;;;;21.30;1.37;;;;;;;21.30;34.93;99939.75;4454873;32;20085;-62
2022/05/23 08:48:41;;;;;;;38.13;2.78;;;;;;;21.74;36.23;99935.25;4453834;32;20119;-62
2022/05/23 08:51:23;;;;;;;5.03;1.13;;;;;;;22.56;35.84;99931.53;4454435;32;20077;-63
2022/05/23 08:53:59;;;;;;;11.00;1.60;;;;;;;22.77;33.45;99932.72;4453754;32;20750;-63
2022/05/23 08:56:34;;;;;;;13.65;1.52;;;;;;;23.07;33.61;99931.56;4439773;32;20131;-63
2022/05/23 08:59:09;;;;;;;7.18;1.10;;;;;;;22.63;32.70;99930.16;4453493;32;20088;-63
2022/05/23 09:02:00;;;;;;;2.60;0.70;;;;;;;23.04;32.96;99931.78;4453017;32;20133;-63
2022/05/23 09:04:37;;;;;;;6.18;1.00;;;;;;;23.42;32.88;99917.41;4453565;32;20092;-62
2022/05/23 09:07:07;;;;;;;8.48;1.17;;;;;;;23.43;33.88;99921.81;4453083;32;20097;-62
2022/05/23 09:09:36;;;;;;;11.38;1.23;;;;;;;23.42;33.46;99918.28;4453343;32;20112;-63
2022/05/23 09:12:11;;;;;;;2.12;0.95;;;;;;;23.91;31.79;99914.69;4452745;32;20481;-63
2022/05/23 09:14:39;;;;;;;8.60;1.17;;;;;;;23.89;30.49;99913.09;4457867;32;20085;-63
2022/05/23 09:17:19;;;;;;;9.75;1.50;;;;;;;23.78;31.73;99906.69;4454059;32;20093;-63
2022/05/23 09:19:53;;;;;;;10.45;1.23;;;;;;;24.37;32.17;99907.66;4452395;32;20196;-62
2022/05/23 09:22:32;;;;;;;9.77;1.45;;;;;;;24.68;30.92;99915.13;4453641;32;20500;-63
2022/05/23 09:25:02;;;;;;;9.40;1.37;;;;;;;24.53;31.40;99910.94;4453883;32;20186;-63
2022/05/23 09:28:18;;;;;;;8.30;1.10;;;;;;;23.90;31.78;99910.28;4454091;32;20176;-63
2022/05/23 09:30:55;;;;;;;2.10;1.10;;;;;;;24.36;31.41;99916.72;4433503;32;20111;-62
2022/05/23 09:33:23;;;;;;;2.70;1.23;;;;;;;24.22;30.23;99918.63;4452465;32;20097;-63
2022/05/23 09:36:06;;;;;;;4.43;1.42;;;;;;;24.78;28.89;99917.97;4450673;32;20088;-63
2022/05/23 09:38:46;;;;;;;6.03;1.02;;;;;;;24.63;30.10;99921.81;4452537;32;20097;-63
2022/05/23 09:41:28;;;;;;;5.82;0.80;;;;;;;25.27;28.65;99911.41;4464254;32;20447;-63
2022/05/23 09:49:31;;;;;;;1.23;0.85;;;;;;;25.52;29.64;99911.13;4470932;32;20541;-62
2022/05/23 09:52:18;;;;;;;2.08;1.00;;;;;;;25.66;27.84;99901.87;4471770;32;20126;-62
2022/05/23 09:54:52;;;;;;;3.72;1.27;;;;;;;25.88;27.86;99901.00;4471851;32;20161;-62
2022/05/23 09:57:32;;;;;;;4.93;1.05;;;;;;;25.36;27.97;99904.38;4471265;32;20119;-61
2022/05/23 10:00:09;;;;;;;9.60;1.00;;;;;;;25.71;28.75;99891.56;4471468;32;20160;-62
2022/05/23 10:02:47;;;;;;;2.72;1.05;;;;;;;26.74;27.67;99903.66;4471379;32;20106;-62
2022/05/23 10:05:22;;;;;;;5.65;1.10;;;;;;;26.88;26.98;99893.34;4471365;32;20092;-62
2022/05/23 10:07:53;;;;;;;8.05;1.30;;;;;;;26.96;27.07;99898.06;4471700;32;20120;-64
2022/05/23 10:10:30;;;;;;;3.05;0.70;;;;;;;27.00;29.02;99891.41;4444430;32;20108;-64
2022/05/23 10:13:19;;;;;;;1.87;0.90;;;;;;;27.12;26.68;99882.25;4455572;32;20148;-64
2022/05/23 10:15:52;;;;;;;2.22;0.90;;;;;;;26.02;27.59;99890.88;4456057;32;20065;-64
2022/05/23 10:18:24;;;;;;;8.50;1.10;;;;;;;26.66;27.36;99896.22;4456079;32;20106;-64
2022/05/23 10:20:57;;;;;;;4.00;0.77;;;;;;;26.96;27.25;99891.81;4455632;32;20160;-65
2022/05/23 10:23:25;;;;;;;7.20;1.90;;;;;;;27.53;25.81;99883.09;4455963;32;20144;-64
2022/05/23 10:26:10;;;;;;;3.90;1.00;;;;;;;27.82;26.13;99882.31;4455844;32;20096;-64
2022/05/23 10:28:56;;;;;;;14.13;1.65;;;;;;;27.77;25.59;99876.44;4455433;32;20112;-64
2022/05/23 10:31:33;;;;;;;3.55;1.20;;;;;;;28.15;26.87;99885.59;4455900;32;20126;-64
2022/05/23 10:34:14;;;;;;;3.00;0.95;;;;;;;28.72;23.96;99875.69;4455911;32;20081;-65
2022/05/23 10:36:46;;;;;;;2.37;1.00;;;;;;;28.65;24.61;99875.41;4440855;32;20123;-65
2022/05/23 10:42:31;;;;;;;2.00;0.98;;;;;;;27.21;26.31;99871.59;4454849;32;20092;-65
2022/05/23 10:45:17;;;;;;;4.12;1.40;;;;;;;27.11;25.97;99864.28;4423771;32;20175;-65
2022/05/23 10:47:48;;;;;;;18.12;1.52;;;;;;;27.39;26.42;99864.53;4454555;32;20084;-65
2022/05/23 10:50:54;;;;;;;3.62;1.00;;;;;;;27.33;25.63;99862.38;4453759;32;20089;-65
2022/05/23 10:53:37;;;;;;;10.32;1.30;;;;;;;27.12;25.90;99857.03;4455046;32;20783;-64
2022/05/23 10:56:17;;;;;;;33.42;2.28;;;;;;;27.68;25.76;99851.06;4455391;32;20088;-64
2022/05/23 10:58:58;;;;;;;5.47;1.60;;;;;;;27.05;25.51;99853.16;4453566;32;20168;-65
2022/05/23 11:01:41;;;;;;;2.15;1.10;;;;;;;26.59;25.67;99854.50;4439944;32;20129;-64
2022/05/23 11:04:38;;;;;;;4.55;1.00;;;;;;;26.96;25.63;99835.88;4453319;32;20119;-64
2022/05/23 11:07:28;;;;;;;1.52;0.95;;;;;;;27.34;26.03;99832.47;4453304;32;20131;-65
2022/05/23 11:09:55;;;;;;;4.95;1.05;;;;;;;28.65;25.15;99828.47;4463292;32;20489;-65
2022/05/23 11:12:44;;;;;;;4.70;1.20;;;;;;;29.64;24.22;99820.56;4467870;32;20180;-65
2022/05/23 11:15:37;;;;;;;4.32;1.10;;;;;;;28.36;24.34;99818.53;4468376;32;20100;-65
2022/05/23 11:18:08;;;;;;;8.85;1.23;;;;;;;28.41;24.50;99823.53;4468740;32;20137;-65
2022/05/23 11:20:39;;;;;;;4.22;1.10;;;;;;;27.87;24.55;99828.56;4470112;32;20152;-65
2022/05/23 11:23:29;;;;;;;1.08;1.05;;;;;;;27.92;24.76;99826.31;4471368;32;20085;-64
2022/05/23 11:26:01;;;;;;;14.05;1.45;;;;;;;27.75;24.89;99818.87;4471125;32;20088;-65
2022/05/23 11:34:27;;;;;;;5.00;1.50;;;;;;;30.06;21.84;99819.94;4471140;32;20170;-64
2022/05/23 11:37:09;;;;;;;4.37;1.25;;;;;;;28.95;23.57;99825.50;4471490;32;20139;-65
2022/05/23 11:39:59;;;;;;;4.50;1.65;;;;;;;27.53;24.95;99825.41;4471196;32;20707;-65
2022/05/23 11:42:32;;;;;;;11.20;1.58;;;;;;;29.18;23.50;99830.56;4471376;32;20095;-65
2022/05/23 11:48:46;;;;;;;6.07;1.23;;;;;;;29.95;23.34;99819.16;4471016;32;20104;-65
2022/05/23 11:51:24;;;;;;;1.35;0.98;;;;;;;29.75;23.22;99813.06;4471500;32;20464;-65
2022/05/23 11:53:57;;;;;;;4.55;1.30;;;;;;;30.38;20.94;99820.19;4471194;32;20080;-65
2022/05/23 11:56:39;;;;;;;3.03;1.20;;;;;;;30.03;22.12;99804.78;4470926;32;20092;-65
2022/05/23 11:59:09;;;;;;;2.30;1.02;;;;;;;30.43;22.88;99804.28;4470754;32;20463;-65
2022/05/23 12:01:38;;;;;;;2.70;1.17;;;;;;;31.20;21.89;99801.59;4470395;32;20110;-65
2022/05/23 12:04:12;;;;;;;2.08;1.12;;;;;;;32.00;21.54;99799.22;4470999;32;20087;-65
2022/05/23 12:06:42;;;;;;;7.18;1.62;;;;;;;32.22;21.38;99799.56;4471088;32;20134;-65
2022/05/23 12:09:12;;;;;;;2.35;1.10;;;;;;;32.33;20.08;99805.53;4465744;32;20101;-65
2022/05/23 12:11:41;;;;;;;5.97;1.17;;;;;;;30.12;21.94;99801.13;4455311;32;20716;-65
2022/05/23 12:14:14;;;;;;;2.60;0.80;;;;;;;30.90;22.90;99809.31;4455319;32;20076;-65
2022/05/23 12:16:49;;;;;;;5.03;1.60;;;;;;;31.49;20.53;99816.69;4455160;32;20181;-65
2022/05/23 12:19:28;;;;;;;4.87;0.93;;;;;;;32.33;20.71;99808.25;4455110;32;20123;-66
2022/05/23 12:22:28;;;;;;;4.87;1.25;;;;;;;32.14;21.51;99793.09;4454914;32;20376;-65
2022/05/23 12:25:07;;;;;;;3.22;1.30;;;;;;;32.65;20.03;99792.84;4454819;32;20145;-65
2022/05/23 12:28:03;;;;;;;3.87;0.82;;;;;;;30.60;21.14;99783.47;4455096;32;20126;-65
2022/05/23 12:30:36;;;;;;;3.22;1.27;;;;;;;32.24;21.68;99786.63;4454961;32;20766;-65
2022/05/23 12:33:23;;;;;;;5.22;1.25;;;;;;;33.13;20.44;99774.59;4455023;32;20108;-65
2022/05/23 12:36:06;;;;;;;6.57;1.60;;;;;;;31.19;21.44;99764.50;4454605;32;20113;-65
2022/05/23 12:38:48;;;;;;;4.87;1.00;;;;;;;30.92;21.63;99763.78;4454949;32;20799;-65
2022/05/23 12:41:35;;;;;;;5.75;1.48;;;;;;;33.02;19.38;99767.66;4454818;32;20092;-65
2022/05/23 12:44:28;;;;;;;5.07;1.30;;;;;;;32.41;19.17;99763.78;4454851;32;20119;-64
2022/05/23 12:47:02;;;;;;;2.78;1.20;;;;;;;32.17;19.42;99761.06;4460580;32;20149;-65
2022/05/23 12:50:01;;;;;;;2.72;1.25;;;;;;;32.02;19.78;99767.22;4470388;32;20127;-65
2022/05/23 12:52:43;;;;;;;2.55;1.15;;;;;;;32.03;20.96;99760.75;4453808;32;20100;-65
2022/05/23 12:55:32;;;;;;;7.47;1.45;;;;;;;33.48;18.37;99747.78;4470053;32;20225;-65
2022/05/23 12:58:37;;;;;;;2.85;1.40;;;;;;;31.27;20.85;99747.34;4469966;32;20119;-65